createdAt,value
2023-05-07T00:00:32.460Z,19.35
2023-05-07T00:02:59.232Z,19.23
2023-05-07T00:05:25.985Z,19.40
2023-05-07T00:07:53.932Z,19.17
2023-05-07T00:10:20.843Z,19.25
2023-05-07T00:12:47.955Z,19.26
2023-05-07T00:15:14.710Z,18.98
2023-05-07T00:17:41.547Z,18.90
2023-05-07T00:20:08.685Z,19.04
2023-05-07T00:22:35.632Z,19.01
2023-05-07T00:25:02.375Z,18.94
2023-05-07T00:27:29.108Z,18.88
2023-05-07T00:29:55.986Z,18.96
2023-05-07T00:32:22.806Z,18.90
2023-05-07T00:34:49.637Z,19.01
2023-05-07T00:37:16.338Z,18.89
2023-05-07T00:39:43.051Z,18.83
2023-05-07T00:42:10.031Z,18.87
2023-05-07T00:44:36.837Z,18.96
2023-05-07T00:47:04.736Z,18.86
2023-05-07T00:49:37.052Z,19.00
2023-05-07T00:52:03.804Z,18.78
2023-05-07T00:54:30.744Z,18.83
2023-05-07T00:56:57.503Z,18.63
2023-05-07T00:59:24.924Z,18.60
2023-05-07T01:01:53.301Z,18.33
2023-05-07T01:04:20.033Z,18.27
2023-05-07T01:06:47.543Z,18.44
2023-05-07T01:09:14.953Z,18.32
2023-05-07T01:11:41.784Z,18.46
2023-05-07T01:14:09.225Z,18.52
2023-05-07T01:16:35.987Z,18.43
2023-05-07T01:19:02.693Z,18.44
2023-05-07T01:21:33.937Z,18.36
2023-05-07T01:24:00.843Z,18.24
2023-05-07T01:26:27.617Z,18.17
2023-05-07T01:28:54.294Z,18.32
2023-05-07T01:31:21.601Z,18.23
2023-05-07T01:33:50.230Z,18.31
2023-05-07T01:36:18.651Z,18.13
2023-05-07T01:38:45.711Z,18.19
2023-05-07T01:41:13.058Z,18.14
2023-05-07T01:43:41.090Z,18.12
2023-05-07T01:46:08.227Z,18.06
2023-05-07T01:48:35.827Z,18.22
2023-05-07T01:51:03.391Z,18.08
2023-05-07T01:53:30.168Z,18.08
2023-05-07T01:55:56.948Z,18.19
2023-05-07T01:58:23.605Z,18.25
2023-05-07T02:00:50.334Z,18.02
2023-05-07T02:03:17.194Z,17.78
2023-05-07T02:05:43.940Z,16.88
2023-05-07T02:08:10.955Z,17.19
2023-05-07T02:10:37.745Z,17.19
2023-05-07T02:13:04.820Z,17.22
2023-05-07T02:15:31.687Z,17.29
2023-05-07T02:18:01.544Z,17.34
2023-05-07T02:20:28.674Z,17.39
2023-05-07T02:22:55.378Z,17.10
2023-05-07T02:25:22.347Z,17.29
2023-05-07T02:27:49.148Z,17.36
2023-05-07T02:30:16.195Z,17.22
2023-05-07T02:32:43.664Z,17.33
2023-05-07T02:35:10.594Z,17.37
2023-05-07T02:37:37.308Z,17.33
2023-05-07T02:40:05.546Z,17.06
2023-05-07T02:42:32.417Z,16.88
2023-05-07T02:44:59.175Z,16.59
2023-05-07T02:47:28.185Z,16.83
2023-05-07T02:49:55.214Z,16.78
2023-05-07T02:52:22.187Z,16.97
2023-05-07T02:54:48.946Z,16.64
2023-05-07T02:57:16.067Z,16.67
2023-05-07T02:59:43.196Z,16.92
2023-05-07T03:02:10.256Z,16.95
2023-05-07T03:04:37.199Z,17.03
2023-05-07T03:07:04.013Z,16.88
2023-05-07T03:09:30.841Z,16.95
2023-05-07T03:11:57.759Z,16.78
2023-05-07T03:14:24.463Z,16.51
2023-05-07T03:16:51.374Z,16.70
2023-05-07T03:19:18.106Z,16.76
2023-05-07T03:21:44.778Z,16.44
2023-05-07T03:24:11.596Z,16.60
2023-05-07T03:26:38.321Z,16.49
2023-05-07T03:29:05.005Z,16.58
2023-05-07T03:31:31.759Z,16.66
2023-05-07T03:33:58.907Z,16.75
2023-05-07T03:36:27.887Z,16.83
2023-05-07T03:38:54.727Z,16.70
2023-05-07T03:41:21.933Z,16.54
2023-05-07T03:43:48.727Z,16.68
2023-05-07T03:46:15.693Z,16.30
2023-05-07T03:48:42.430Z,15.87
2023-05-07T03:51:09.165Z,16.32
2023-05-07T03:53:36.015Z,16.43
2023-05-07T03:56:02.731Z,15.75
2023-05-07T03:58:29.471Z,15.94
2023-05-07T04:00:56.135Z,15.99
2023-05-07T04:03:22.997Z,16.37
2023-05-07T04:05:49.799Z,16.20
2023-05-07T04:08:16.513Z,16.65
2023-05-07T04:10:43.238Z,16.19
2023-05-07T04:13:10.090Z,16.35
2023-05-07T04:15:37.278Z,16.06
2023-05-07T04:18:04.129Z,16.05
2023-05-07T04:20:30.870Z,16.05
2023-05-07T04:22:57.613Z,16.06
2023-05-07T04:25:28.014Z,16.39
2023-05-07T04:27:56.668Z,16.32
2023-05-07T04:30:24.833Z,16.21
2023-05-07T04:32:51.734Z,16.26
2023-05-07T04:35:18.676Z,16.73
2023-05-07T04:37:45.401Z,16.99
2023-05-07T04:40:12.467Z,17.16
2023-05-07T04:42:39.330Z,17.17
2023-05-07T04:45:06.375Z,17.80
2023-05-07T04:47:33.121Z,17.52
2023-05-07T04:49:59.867Z,17.61
2023-05-07T04:52:27.426Z,17.71
2023-05-07T04:54:54.218Z,17.74
2023-05-07T04:57:20.989Z,17.77
2023-05-07T04:59:47.697Z,18.06
2023-05-07T05:02:14.356Z,17.92
2023-05-07T05:04:41.026Z,18.04
2023-05-07T05:07:07.771Z,18.13
2023-05-07T05:09:34.475Z,18.59
2023-05-07T05:12:01.184Z,18.50
2023-05-07T05:14:28.991Z,18.43
2023-05-07T05:16:55.874Z,18.38
2023-05-07T05:19:22.574Z,17.99
2023-05-07T05:21:49.252Z,18.38
2023-05-07T05:24:16.522Z,18.55
2023-05-07T05:26:43.276Z,18.37
2023-05-07T05:29:10.154Z,18.46
2023-05-07T05:31:37.548Z,18.84
2023-05-07T05:34:04.830Z,18.81
2023-05-07T05:36:31.952Z,19.04
2023-05-07T05:38:58.732Z,18.99
2023-05-07T05:41:26.155Z,19.29
2023-05-07T05:43:52.915Z,19.75
2023-05-07T05:46:19.669Z,19.76
2023-05-07T05:48:46.456Z,19.86
2023-05-07T05:51:13.675Z,19.88
2023-05-07T05:53:40.427Z,20.02
2023-05-07T05:56:07.415Z,20.44
2023-05-07T05:58:34.267Z,20.51
2023-05-07T06:01:01.256Z,20.71
2023-05-07T06:03:28.042Z,20.50
2023-05-07T06:05:54.835Z,21.13
2023-05-07T06:08:21.635Z,21.20
2023-05-07T06:10:48.434Z,20.95
2023-05-07T06:13:15.300Z,21.43
2023-05-07T06:15:42.103Z,21.26
2023-05-07T06:18:08.920Z,21.16
2023-05-07T06:20:35.619Z,21.62
2023-05-07T06:23:02.335Z,21.76
2023-05-07T06:25:29.090Z,21.90
2023-05-07T06:27:55.813Z,22.19
2023-05-07T06:30:22.732Z,22.08
2023-05-07T06:32:49.533Z,22.39
2023-05-07T06:35:16.302Z,22.48
2023-05-07T06:37:43.957Z,22.99
2023-05-07T06:40:11.255Z,23.44
2023-05-07T06:42:38.616Z,23.96
2023-05-07T06:45:05.638Z,24.62
2023-05-07T06:47:32.388Z,24.86
2023-05-07T06:49:59.164Z,24.93
2023-05-07T06:52:26.217Z,25.69
2023-05-07T06:54:53.017Z,25.34
2023-05-07T06:57:19.756Z,25.45
2023-05-07T06:59:46.436Z,24.77
2023-05-07T07:02:13.167Z,25.94
2023-05-07T07:04:40.081Z,26.55
2023-05-07T07:07:06.942Z,26.86
2023-05-07T07:09:33.662Z,24.81
2023-05-07T07:12:00.433Z,25.87
2023-05-07T07:14:27.138Z,25.99
2023-05-07T07:16:53.902Z,24.23
2023-05-07T07:19:21.566Z,25.53
2023-05-07T07:21:48.333Z,25.75
2023-05-07T07:24:20.367Z,25.72
2023-05-07T07:26:47.133Z,25.45
2023-05-07T07:29:14.021Z,26.41
2023-05-07T07:31:40.894Z,27.11
2023-05-07T07:34:07.698Z,27.07
2023-05-07T07:36:42.838Z,26.38
2023-05-07T07:39:12.813Z,26.11
2023-05-07T07:41:39.627Z,26.73
2023-05-07T07:44:08.766Z,26.36
2023-05-07T07:46:36.094Z,27.65
2023-05-07T07:49:02.893Z,27.92
2023-05-07T07:51:29.705Z,28.11
2023-05-07T07:53:56.621Z,29.06
2023-05-07T07:56:23.537Z,29.68
2023-05-07T07:58:50.302Z,29.59
2023-05-07T08:01:17.897Z,30.18
2023-05-07T08:03:44.744Z,30.02
2023-05-07T08:06:11.805Z,29.17
2023-05-07T08:08:38.840Z,28.25
2023-05-07T08:11:05.664Z,27.95
2023-05-07T08:13:32.538Z,28.22
2023-05-07T08:15:59.292Z,28.89
2023-05-07T08:18:26.670Z,28.86
2023-05-07T08:20:53.501Z,29.46
2023-05-07T08:23:20.307Z,29.98
2023-05-07T08:25:47.077Z,29.53
2023-05-07T08:28:13.828Z,30.50
2023-05-07T08:30:40.651Z,30.80
2023-05-07T08:33:07.433Z,31.48
2023-05-07T08:35:34.232Z,31.54
2023-05-07T08:38:01.066Z,32.18
2023-05-07T08:40:28.129Z,32.18
2023-05-07T08:42:55.116Z,31.28
2023-05-07T08:45:22.305Z,32.21
2023-05-07T08:47:53.020Z,30.44
2023-05-07T08:50:21.009Z,31.08
2023-05-07T08:52:48.434Z,31.80
2023-05-07T08:55:15.368Z,31.41
2023-05-07T08:57:42.149Z,31.21
2023-05-07T09:00:09.226Z,31.49
2023-05-07T09:02:39.110Z,31.77
2023-05-07T09:05:06.144Z,32.30
2023-05-07T09:07:33.223Z,32.32
2023-05-07T09:10:02.439Z,31.92
2023-05-07T09:12:29.211Z,32.08
2023-05-07T09:14:55.927Z,30.76
2023-05-07T09:17:22.656Z,30.93
2023-05-07T09:19:49.577Z,31.10
2023-05-07T09:22:16.544Z,31.75
2023-05-07T09:24:48.530Z,30.70
2023-05-07T09:27:15.724Z,31.48
2023-05-07T09:29:42.546Z,31.24
2023-05-07T09:32:09.817Z,30.23
2023-05-07T09:34:37.478Z,29.76
2023-05-07T09:37:04.932Z,31.09
2023-05-07T09:39:57.784Z,30.96
2023-05-07T09:42:25.786Z,29.87
2023-05-07T09:44:52.529Z,29.33
2023-05-07T09:47:24.777Z,28.69
2023-05-07T09:49:51.544Z,30.17
2023-05-07T09:52:18.388Z,30.72
2023-05-07T09:54:46.477Z,29.52
2023-05-07T09:57:13.356Z,29.12
2023-05-07T09:59:43.512Z,27.73
2023-05-07T10:02:11.581Z,28.93
2023-05-07T10:04:38.451Z,30.00
2023-05-07T10:07:06.189Z,29.83
2023-05-07T10:09:33.294Z,28.33
2023-05-07T10:12:00.676Z,28.65
2023-05-07T10:14:29.350Z,28.87
2023-05-07T10:16:56.307Z,29.34
2023-05-07T10:19:23.342Z,28.03
2023-05-07T10:21:55.347Z,29.08
2023-05-07T10:24:26.876Z,28.28
2023-05-07T10:26:54.246Z,29.22
2023-05-07T10:29:33.066Z,30.11
2023-05-07T10:32:02.780Z,30.00
2023-05-07T10:34:34.099Z,29.74
2023-05-07T10:37:01.514Z,29.19
2023-05-07T10:39:28.466Z,29.96
2023-05-07T10:41:55.216Z,30.62
2023-05-07T10:44:29.380Z,30.03
2023-05-07T10:47:25.393Z,30.35
2023-05-07T10:49:52.275Z,29.65
2023-05-07T10:52:20.150Z,29.17
2023-05-07T10:54:47.383Z,28.56
2023-05-07T10:57:32.983Z,29.26
2023-05-07T10:59:59.830Z,29.80
2023-05-07T11:02:59.289Z,30.04
2023-05-07T11:05:26.289Z,29.73
2023-05-07T11:07:57.018Z,30.51
2023-05-07T11:10:23.829Z,29.16
2023-05-07T11:12:51.814Z,30.31
2023-05-07T11:15:38.854Z,30.96
2023-05-07T11:18:05.726Z,31.08
2023-05-07T11:20:54.305Z,31.30
2023-05-07T11:23:33.355Z,30.18
2023-05-07T11:26:07.199Z,30.22
2023-05-07T11:28:39.893Z,30.99
2023-05-07T11:31:06.699Z,30.46
2023-05-07T11:33:33.658Z,31.17
2023-05-07T11:36:03.949Z,31.28
2023-05-07T11:38:37.688Z,30.24
2023-05-07T11:41:06.247Z,30.21
2023-05-07T11:43:33.666Z,29.88
2023-05-07T11:46:11.125Z,28.95
2023-05-07T11:48:38.332Z,28.95
2023-05-07T11:51:06.367Z,28.31
2023-05-07T11:53:40.418Z,27.59
2023-05-07T11:56:08.335Z,28.15
2023-05-07T11:58:35.518Z,29.22
2023-05-07T12:01:02.261Z,28.97
2023-05-07T12:03:31.725Z,29.48
2023-05-07T12:05:59.005Z,30.00
2023-05-07T12:08:25.936Z,30.24
2023-05-07T12:10:52.763Z,30.67
2023-05-07T12:13:20.299Z,29.51
2023-05-07T12:15:47.242Z,28.92
2023-05-07T12:18:14.531Z,29.79
2023-05-07T12:20:41.616Z,29.61
2023-05-07T12:23:08.395Z,29.23
2023-05-07T12:25:44.391Z,28.80
2023-05-07T12:28:14.024Z,28.82
2023-05-07T12:30:41.104Z,28.94
2023-05-07T12:33:07.905Z,27.94
2023-05-07T12:35:40.705Z,29.41
2023-05-07T12:38:11.989Z,30.22
2023-05-07T12:40:38.707Z,31.01
2023-05-07T12:43:05.758Z,30.55
2023-05-07T12:45:32.663Z,31.00
2023-05-07T12:48:02.724Z,31.33
2023-05-07T12:50:32.430Z,30.14
2023-05-07T12:52:59.232Z,30.21
2023-05-07T12:55:26.228Z,29.39
2023-05-07T12:57:54.266Z,30.02
2023-05-07T13:00:34.115Z,30.55
2023-05-07T13:03:00.977Z,30.41
2023-05-07T13:05:27.758Z,29.19
2023-05-07T13:07:55.403Z,28.46
2023-05-07T13:10:22.932Z,28.72
2023-05-07T13:12:49.680Z,27.80
2023-05-07T13:15:17.035Z,28.69
2023-05-07T13:17:43.875Z,29.13
2023-05-07T13:20:11.272Z,29.15
2023-05-07T13:22:38.238Z,28.71
2023-05-07T13:25:05.114Z,28.95
2023-05-07T13:27:38.052Z,29.74
2023-05-07T13:30:06.082Z,30.00
2023-05-07T13:32:32.964Z,29.31
2023-05-07T13:34:59.825Z,28.83
2023-05-07T13:37:26.580Z,28.96
2023-05-07T13:39:53.390Z,29.02
2023-05-07T13:42:20.257Z,29.25
2023-05-07T13:44:47.301Z,28.98
2023-05-07T13:47:14.094Z,29.05
2023-05-07T13:49:40.922Z,29.05
2023-05-07T13:52:07.632Z,28.31
2023-05-07T13:54:34.394Z,28.60
2023-05-07T13:57:01.608Z,27.59
2023-05-07T13:59:28.338Z,28.09
2023-05-07T14:01:56.128Z,28.51
2023-05-07T14:04:22.986Z,29.07
2023-05-07T14:06:49.714Z,29.12
2023-05-07T14:09:16.549Z,28.25
2023-05-07T14:11:43.329Z,28.94
2023-05-07T14:14:12.043Z,28.91
2023-05-07T14:16:39.122Z,28.50
2023-05-07T14:19:06.059Z,29.25
2023-05-07T14:21:32.826Z,29.54
2023-05-07T14:23:59.602Z,28.33
2023-05-07T14:26:28.228Z,29.18
2023-05-07T14:28:56.200Z,29.10
2023-05-07T14:31:23.052Z,28.97
2023-05-07T14:33:51.767Z,28.41
2023-05-07T14:36:21.095Z,27.88
2023-05-07T14:38:48.384Z,28.48
2023-05-07T14:41:15.489Z,28.96
2023-05-07T14:43:42.329Z,29.23
2023-05-07T14:46:09.084Z,27.55
2023-05-07T14:48:35.895Z,27.00
2023-05-07T14:51:02.701Z,27.49
2023-05-07T14:53:29.388Z,27.73
2023-05-07T14:55:56.146Z,27.93
2023-05-07T14:58:22.991Z,26.79
2023-05-07T15:00:49.745Z,26.82
2023-05-07T15:03:16.708Z,26.63
2023-05-07T15:05:43.643Z,27.15
2023-05-07T15:08:11.108Z,26.36
2023-05-07T15:10:42.427Z,27.09
2023-05-07T15:13:12.445Z,27.56
2023-05-07T15:15:41.463Z,27.89
2023-05-07T15:18:08.557Z,27.40
2023-05-07T15:20:35.333Z,27.31
2023-05-07T15:23:02.260Z,27.57
2023-05-07T15:25:28.981Z,27.78
2023-05-07T15:27:55.699Z,26.94
2023-05-07T15:30:22.462Z,27.51
2023-05-07T15:32:49.623Z,26.25
2023-05-07T15:35:16.461Z,27.29
2023-05-07T15:37:43.253Z,27.52
2023-05-07T15:40:10.168Z,27.35
2023-05-07T15:42:36.933Z,27.11
2023-05-07T15:45:03.825Z,27.24
2023-05-07T15:47:33.695Z,27.27
2023-05-07T15:50:00.549Z,25.80
2023-05-07T15:52:28.508Z,26.04
2023-05-07T15:54:56.943Z,26.20
2023-05-07T15:57:24.257Z,26.69
2023-05-07T15:59:51.002Z,25.92
2023-05-07T16:02:17.797Z,25.66
2023-05-07T16:04:44.662Z,25.78
2023-05-07T16:07:12.773Z,25.46
2023-05-07T16:09:39.884Z,25.03
2023-05-07T16:12:06.658Z,24.29
2023-05-07T16:14:33.414Z,24.57
2023-05-07T16:17:00.171Z,24.33
2023-05-07T16:19:30.178Z,24.46
2023-05-07T16:21:57.253Z,24.34
2023-05-07T16:24:24.057Z,24.79
2023-05-07T16:26:50.912Z,24.89
2023-05-07T16:29:17.815Z,24.03
2023-05-07T16:31:44.906Z,24.24
2023-05-07T16:34:11.620Z,24.76
2023-05-07T16:36:38.337Z,24.63
2023-05-07T16:39:05.116Z,24.92
2023-05-07T16:41:31.909Z,24.88
2023-05-07T16:43:58.905Z,24.64
2023-05-07T16:46:25.830Z,24.94
2023-05-07T16:48:52.632Z,24.29
2023-05-07T16:51:19.382Z,24.69
2023-05-07T16:53:46.179Z,24.50
2023-05-07T16:56:12.953Z,24.25
2023-05-07T16:58:39.747Z,23.65
2023-05-07T17:01:07.448Z,24.43
2023-05-07T17:03:34.463Z,24.06
2023-05-07T17:06:01.310Z,23.80
2023-05-07T17:08:28.114Z,24.44
2023-05-07T17:10:54.791Z,23.75
2023-05-07T17:13:21.748Z,24.09
2023-05-07T17:15:48.657Z,23.39
2023-05-07T17:18:15.535Z,23.24
2023-05-07T17:20:42.350Z,24.18
2023-05-07T17:23:09.098Z,24.00
2023-05-07T17:25:37.154Z,24.00
2023-05-07T17:28:03.924Z,23.94
2023-05-07T17:30:30.665Z,24.47
2023-05-07T17:33:06.320Z,24.35
2023-05-07T17:35:39.945Z,24.40
2023-05-07T17:38:06.706Z,23.65
2023-05-07T17:40:34.685Z,24.10
2023-05-07T17:43:02.129Z,23.86
2023-05-07T17:45:28.859Z,24.17
2023-05-07T17:47:55.830Z,24.01
2023-05-07T17:50:23.012Z,23.74
2023-05-07T17:52:49.713Z,22.92
2023-05-07T17:55:16.884Z,22.72
2023-05-07T17:57:43.790Z,23.32
2023-05-07T18:00:11.498Z,23.20
2023-05-07T18:02:38.736Z,23.73
2023-05-07T18:05:05.732Z,23.17
2023-05-07T18:07:32.599Z,23.56
2023-05-07T18:09:59.496Z,23.04
2023-05-07T18:12:27.574Z,23.02
2023-05-07T18:14:54.751Z,22.44
2023-05-07T18:17:24.408Z,21.98
2023-05-07T18:19:54.560Z,22.02
2023-05-07T18:22:21.820Z,21.96
2023-05-07T18:24:48.861Z,21.17
2023-05-07T18:27:15.737Z,21.44
2023-05-07T18:29:42.538Z,21.74
2023-05-07T18:32:09.349Z,21.84
2023-05-07T18:34:36.169Z,21.34
2023-05-07T18:37:02.971Z,20.91
2023-05-07T18:39:29.709Z,20.22
2023-05-07T18:41:58.120Z,21.07
2023-05-07T18:44:25.193Z,20.07
2023-05-07T18:46:52.051Z,20.57
2023-05-07T18:49:18.948Z,20.95
2023-05-07T18:51:45.926Z,20.00
2023-05-07T18:54:12.986Z,19.62
2023-05-07T18:56:39.693Z,19.99
2023-05-07T18:59:06.439Z,19.21
2023-05-07T19:01:33.486Z,19.62
2023-05-07T19:04:00.287Z,19.08
2023-05-07T19:06:27.189Z,19.06
2023-05-07T19:08:53.964Z,18.97
2023-05-07T19:11:21.093Z,19.07
2023-05-07T19:13:47.907Z,19.14
2023-05-07T19:16:14.715Z,19.12
2023-05-07T19:18:41.940Z,19.45
2023-05-07T19:21:08.847Z,19.14
2023-05-07T19:23:41.832Z,20.03
2023-05-07T19:26:11.790Z,19.66
2023-05-07T19:28:42.223Z,19.65
2023-05-07T19:31:18.892Z,19.08
2023-05-07T19:33:46.129Z,19.32
2023-05-07T19:36:12.881Z,19.72
2023-05-07T19:38:39.630Z,19.76
2023-05-07T19:41:06.576Z,19.85
2023-05-07T19:43:36.433Z,20.25
2023-05-07T19:46:03.197Z,20.45
2023-05-07T19:48:30.290Z,20.42
2023-05-07T19:50:57.173Z,19.66
2023-05-07T19:53:23.943Z,19.56
2023-05-07T19:55:50.703Z,19.96
2023-05-07T19:58:17.391Z,20.03
2023-05-07T20:00:44.144Z,19.97
2023-05-07T20:03:18.280Z,20.36
2023-05-07T20:05:46.258Z,20.48
2023-05-07T20:08:12.994Z,20.39
2023-05-07T20:10:39.772Z,20.29
2023-05-07T20:13:06.565Z,20.39
2023-05-07T20:15:33.303Z,20.01
2023-05-07T20:18:00.082Z,20.33
2023-05-07T20:20:26.926Z,20.39
2023-05-07T20:22:53.622Z,20.11
2023-05-07T20:25:20.676Z,20.24
2023-05-07T20:27:47.399Z,19.51
2023-05-07T20:30:14.625Z,19.39
2023-05-07T20:32:41.941Z,19.91
2023-05-07T20:35:08.836Z,19.88
2023-05-07T20:37:36.158Z,19.75
2023-05-07T20:40:04.692Z,19.57
2023-05-07T20:42:31.429Z,19.64
2023-05-07T20:44:58.376Z,19.67
2023-05-07T20:47:25.114Z,19.48
2023-05-07T20:49:52.794Z,20.01
2023-05-07T20:52:19.639Z,19.96
2023-05-07T20:54:47.599Z,19.66
2023-05-07T20:57:14.545Z,19.60
2023-05-07T20:59:41.376Z,19.44
2023-05-07T21:02:08.270Z,18.82
2023-05-07T21:04:35.260Z,18.64
2023-05-07T21:07:02.016Z,19.14
2023-05-07T21:09:28.783Z,17.95
2023-05-07T21:11:55.472Z,17.87
2023-05-07T21:14:22.152Z,18.58
2023-05-07T21:16:48.922Z,18.27
2023-05-07T21:19:15.997Z,18.13
2023-05-07T21:21:43.307Z,17.37
2023-05-07T21:24:10.017Z,17.61
2023-05-07T21:26:36.785Z,17.83
2023-05-07T21:29:03.663Z,16.92
2023-05-07T21:31:30.496Z,17.15
2023-05-07T21:33:57.705Z,16.87
2023-05-07T21:36:24.408Z,16.74
2023-05-07T21:38:51.168Z,16.87
2023-05-07T21:41:20.532Z,17.22
2023-05-07T21:43:47.404Z,16.62
2023-05-07T21:46:14.133Z,17.00
2023-05-07T21:48:40.900Z,17.58
2023-05-07T21:51:08.318Z,17.30
2023-05-07T21:53:35.249Z,16.78
2023-05-07T21:56:03.175Z,17.02
2023-05-07T21:58:31.100Z,16.49
2023-05-07T22:00:58.292Z,16.85
2023-05-07T22:03:25.115Z,16.81
2023-05-07T22:05:51.839Z,16.79
2023-05-07T22:08:18.510Z,15.68
2023-05-07T22:10:45.168Z,15.74
2023-05-07T22:13:12.341Z,15.65
2023-05-07T22:15:49.529Z,15.99
2023-05-07T22:18:23.176Z,15.87
2023-05-07T22:20:51.228Z,16.23
2023-05-07T22:23:17.917Z,15.67
2023-05-07T22:25:44.563Z,15.84
2023-05-07T22:28:11.206Z,15.37
2023-05-07T22:30:38.026Z,15.22
2023-05-07T22:33:04.786Z,15.55
2023-05-07T22:35:31.570Z,15.42
2023-05-07T22:37:58.680Z,15.50
2023-05-07T22:40:25.342Z,14.99
2023-05-07T22:42:51.901Z,14.68
2023-05-07T22:45:18.532Z,14.41
2023-05-07T22:47:45.228Z,13.85
2023-05-07T22:50:12.364Z,14.68
2023-05-07T22:52:39.231Z,13.94
2023-05-07T22:55:06.184Z,13.78
2023-05-07T22:57:32.822Z,13.89
2023-05-07T22:59:59.402Z,13.63
2023-05-07T23:02:29.187Z,13.48
2023-05-07T23:04:58.531Z,14.46
2023-05-07T23:07:25.292Z,13.80
2023-05-07T23:09:52.204Z,14.07
2023-05-07T23:12:18.910Z,13.32
2023-05-07T23:14:45.651Z,13.46
2023-05-07T23:17:12.490Z,12.89
2023-05-07T23:19:39.283Z,12.89
2023-05-07T23:22:05.970Z,13.00
2023-05-07T23:24:32.672Z,12.67
2023-05-07T23:26:59.422Z,13.04
2023-05-07T23:29:26.111Z,13.85
2023-05-07T23:31:52.844Z,13.16
2023-05-07T23:34:24.183Z,13.42
2023-05-07T23:36:51.480Z,13.33
2023-05-07T23:39:18.552Z,13.00
2023-05-07T23:41:45.500Z,13.85
2023-05-07T23:44:12.423Z,14.13
2023-05-07T23:46:39.195Z,14.16
2023-05-07T23:49:06.023Z,14.03
2023-05-07T23:51:32.747Z,13.89
2023-05-07T23:53:59.463Z,13.78
2023-05-07T23:56:26.202Z,13.29
2023-05-07T23:58:52.947Z,13.94
